createdAt,value
2024-03-01T00:00:28.294Z,9.711816
2024-03-01T00:01:28.307Z,9.711949
2024-03-01T00:02:28.266Z,9.712019
2024-03-01T00:03:28.240Z,9.711974
2024-03-01T00:04:28.308Z,9.711877
2024-03-01T00:05:28.271Z,9.711750
2024-03-01T00:06:28.233Z,9.711596
2024-03-01T00:07:28.326Z,9.711367
2024-03-01T00:08:28.211Z,9.711542
2024-03-01T00:09:28.222Z,9.711778
2024-03-01T00:19:18.858Z,9.711141
2024-03-01T00:20:18.832Z,9.711749
2024-03-01T00:21:18.848Z,9.711985
2024-03-01T00:22:18.907Z,9.711744
2024-03-01T00:23:18.851Z,9.711227
2024-03-01T00:24:18.814Z,9.710908
2024-03-01T00:25:18.825Z,9.710243
2024-03-01T00:26:18.807Z,9.710830
2024-03-01T00:27:18.792Z,9.711063
2024-03-01T00:28:18.825Z,9.711152
2024-03-01T00:29:18.797Z,9.711059
2024-03-01T00:30:18.760Z,9.711026
2024-03-01T00:31:18.786Z,9.711103
2024-03-01T00:32:18.735Z,9.711307
2024-03-01T00:33:18.771Z,9.711209
2024-03-01T00:34:18.761Z,9.711231
2024-03-01T00:35:18.721Z,9.711386
2024-03-01T00:36:18.730Z,9.711007
2024-03-01T00:37:18.744Z,9.710949
2024-03-01T00:38:18.851Z,9.710976
2024-03-01T00:39:18.728Z,9.710958
2024-03-01T00:40:18.748Z,9.711300
2024-03-01T00:41:18.667Z,9.711430
2024-03-01T00:42:18.664Z,9.711432
2024-03-01T00:43:18.675Z,9.711222
2024-03-01T00:44:18.662Z,9.711386
2024-03-01T00:45:18.665Z,9.711290
2024-03-01T00:46:18.668Z,9.711307
2024-03-01T00:47:18.620Z,9.711421
2024-03-01T00:48:18.635Z,9.711234
2024-03-01T00:49:18.679Z,9.711556
2024-03-01T00:50:18.618Z,9.711432
2024-03-01T00:51:18.607Z,9.711389
2024-03-01T00:52:18.639Z,9.711354
2024-03-01T00:53:18.610Z,9.711244
2024-03-01T00:54:18.661Z,9.711248
2024-03-01T00:55:18.604Z,9.711308
2024-03-01T00:56:18.618Z,9.711261
2024-03-01T00:57:18.549Z,9.711030
2024-03-01T00:58:18.566Z,9.711185
2024-03-01T00:59:18.521Z,9.711467
2024-03-01T01:00:18.537Z,9.711210
2024-03-01T01:01:18.551Z,9.711334
2024-03-01T01:02:18.566Z,9.711104
2024-03-01T01:03:18.547Z,9.711169
2024-03-01T01:04:18.546Z,9.711102
2024-03-01T01:05:18.523Z,9.711153
2024-03-01T01:06:18.521Z,9.711546
2024-03-01T01:07:18.535Z,9.711614
2024-03-01T01:08:19.173Z,9.711493
2024-03-01T01:09:18.478Z,9.711689
2024-03-01T01:10:18.593Z,9.711792
2024-03-01T01:11:18.476Z,9.711561
2024-03-01T01:12:18.440Z,9.711428
2024-03-01T01:13:18.461Z,9.711492
2024-03-01T01:14:18.422Z,9.711416
2024-03-01T01:15:18.420Z,9.711315
2024-03-01T01:16:18.447Z,9.711569
2024-03-01T01:17:18.408Z,9.711533
2024-03-01T01:18:18.409Z,9.711594
2024-03-01T01:19:18.435Z,9.711750
2024-03-01T01:20:18.396Z,9.711720
2024-03-01T01:21:18.388Z,9.711875
2024-03-01T01:22:18.408Z,9.711636
2024-03-01T01:23:18.354Z,9.711606
2024-03-01T01:24:18.367Z,9.711688
2024-03-01T01:25:18.416Z,9.711380
2024-03-01T01:26:18.352Z,9.711424
2024-03-01T01:27:18.321Z,9.711614
2024-03-01T01:28:18.342Z,9.711707
2024-03-01T01:29:18.770Z,9.711577
2024-03-01T01:30:18.343Z,9.711550
2024-03-01T01:31:18.334Z,9.711700
2024-03-01T01:32:18.299Z,9.711632
2024-03-01T01:33:18.355Z,9.711564
2024-03-01T01:34:18.318Z,9.711598
2024-03-01T01:35:18.271Z,9.711400
2024-03-01T01:36:18.263Z,9.711493
2024-03-01T01:37:18.263Z,9.711658
2024-03-01T01:38:18.238Z,9.711593
2024-03-01T01:39:18.259Z,9.711510
2024-03-01T01:40:18.244Z,9.711468
2024-03-01T01:41:18.199Z,9.711560
2024-03-01T01:42:18.191Z,9.711677
2024-03-01T01:43:18.223Z,9.711795
2024-03-01T01:44:18.205Z,9.711655
2024-03-01T01:45:18.183Z,9.711818
2024-03-01T01:46:18.222Z,9.711839
2024-03-01T01:47:18.179Z,9.711740
2024-03-01T01:48:18.143Z,9.711524
2024-03-01T01:49:18.180Z,9.711585
2024-03-01T01:50:18.138Z,9.711726
2024-03-01T01:51:18.149Z,9.711719
2024-03-01T01:52:18.146Z,9.711903
2024-03-01T01:53:21.721Z,9.711963
2024-03-01T01:54:19.121Z,9.711827
2024-03-01T01:55:18.120Z,9.711800
2024-03-01T01:56:18.090Z,9.711994
2024-03-01T01:57:18.084Z,9.712010
2024-03-01T01:58:18.222Z,9.712176
2024-03-01T01:59:18.070Z,9.711991
2024-03-01T02:00:18.058Z,9.712185
2024-03-01T02:01:18.110Z,9.712317
2024-03-01T02:02:18.032Z,9.712044
2024-03-01T02:03:18.043Z,9.712008
2024-03-01T02:04:18.805Z,9.711979
2024-03-01T02:05:18.018Z,9.711869
2024-03-01T02:06:18.776Z,9.711606
2024-03-01T02:07:18.068Z,9.711522
2024-03-01T02:08:17.989Z,9.711582
2024-03-01T02:09:17.981Z,9.711765
2024-03-01T02:10:18.553Z,9.712030
2024-03-01T02:11:17.996Z,9.712021
2024-03-01T02:12:17.948Z,9.711895
2024-03-01T02:13:19.422Z,9.711970
2024-03-01T02:14:18.066Z,9.711867
2024-03-01T02:15:17.964Z,9.711940
2024-03-01T02:16:17.967Z,9.711928
2024-03-01T02:17:17.941Z,9.712095
2024-03-01T02:18:17.957Z,9.712626
2024-03-01T02:19:18.783Z,9.712681
2024-03-01T02:20:17.896Z,9.712646
2024-03-01T02:21:17.891Z,9.712374
2024-03-01T02:22:17.928Z,9.712143
2024-03-01T02:23:17.864Z,9.712030
2024-03-01T02:24:17.885Z,9.711865
2024-03-01T02:25:17.993Z,9.711802
2024-03-01T02:26:17.897Z,9.712015
2024-03-01T02:27:17.860Z,9.712000
2024-03-01T02:28:17.853Z,9.712257
2024-03-01T02:29:18.819Z,9.712326
2024-03-01T02:30:18.064Z,9.712145
2024-03-01T02:31:17.828Z,9.712011
2024-03-01T02:32:17.799Z,9.711667
2024-03-01T02:33:17.851Z,9.711549
2024-03-01T02:34:17.812Z,9.711592
2024-03-01T02:35:17.791Z,9.711692
2024-03-01T02:36:17.762Z,9.711836
2024-03-01T02:37:17.778Z,9.711864
2024-03-01T02:38:17.755Z,9.711823
2024-03-01T02:39:17.761Z,9.712071
2024-03-01T02:40:17.781Z,9.711911
2024-03-01T02:41:17.736Z,9.711729
2024-03-01T02:42:17.699Z,9.711735
2024-03-01T02:43:17.760Z,9.711858
2024-03-01T02:44:17.693Z,9.711934
2024-03-01T02:45:17.700Z,9.712081
2024-03-01T02:46:17.834Z,9.712031
2024-03-01T02:47:17.678Z,9.712093
2024-03-01T02:48:17.661Z,9.712064
2024-03-01T02:49:17.703Z,9.712049
2024-03-01T02:50:17.649Z,9.712028
2024-03-01T02:51:17.647Z,9.711790
2024-03-01T02:52:17.645Z,9.711964
2024-03-01T02:53:18.256Z,9.711936
2024-03-01T02:54:17.635Z,9.711944
2024-03-01T02:55:17.666Z,9.711870
2024-03-01T02:56:17.615Z,9.711989
2024-03-01T02:57:17.588Z,9.711910
2024-03-01T02:58:17.644Z,9.712019
2024-03-01T02:59:17.581Z,9.711927
2024-03-01T03:00:17.558Z,9.711873
2024-03-01T03:01:17.666Z,9.711920
2024-03-01T03:02:17.553Z,9.711932
2024-03-01T03:03:17.554Z,9.712024
2024-03-01T03:04:17.547Z,9.711905
2024-03-01T03:05:17.539Z,9.711857
2024-03-01T03:06:17.538Z,9.711770
2024-03-01T03:07:18.224Z,9.711768
2024-03-01T03:08:17.517Z,9.711839
2024-03-01T03:09:17.503Z,9.711732
2024-03-01T03:10:17.710Z,9.711669
2024-03-01T03:11:17.486Z,9.711609
2024-03-01T03:12:17.512Z,9.711561
2024-03-01T03:13:17.526Z,9.711581
2024-03-01T03:14:17.451Z,9.711683
2024-03-01T03:15:17.549Z,9.711816
2024-03-01T03:16:17.507Z,9.711872
2024-03-01T03:17:17.451Z,9.711783
2024-03-01T03:18:18.449Z,9.711831
2024-03-01T03:19:17.457Z,9.711880
2024-03-01T03:20:17.415Z,9.711846
2024-03-01T03:21:17.425Z,9.711868
2024-03-01T03:22:17.443Z,9.711792
2024-03-01T03:23:17.429Z,9.711707
2024-03-01T03:24:17.416Z,9.711719
2024-03-01T03:25:17.431Z,9.711691
2024-03-01T03:26:18.367Z,9.711663
2024-03-01T03:27:17.371Z,9.711646
2024-03-01T03:28:17.381Z,9.711678
2024-03-01T03:29:17.332Z,9.711697
2024-03-01T03:30:17.347Z,9.711647
2024-03-01T03:31:17.339Z,9.711652
2024-03-01T03:32:17.330Z,9.711660
2024-03-01T03:33:17.407Z,9.711750
2024-03-01T03:34:17.458Z,9.711801
2024-03-01T03:35:17.302Z,9.711662
2024-03-01T03:36:17.301Z,9.711869
2024-03-01T03:37:17.343Z,9.711841
2024-03-01T03:38:17.262Z,9.711781
2024-03-01T03:39:17.297Z,9.711882
2024-03-01T03:40:17.409Z,9.711864
2024-03-01T03:41:17.235Z,9.711729
2024-03-01T03:42:17.244Z,9.712042
2024-03-01T03:43:17.300Z,9.711784
2024-03-01T03:44:17.232Z,9.711582
2024-03-01T03:45:17.209Z,9.711842
2024-03-01T03:46:17.268Z,9.711698
2024-03-01T03:47:17.206Z,9.711733
2024-03-01T03:48:17.207Z,9.711511
2024-03-01T03:49:17.175Z,9.711773
2024-03-01T03:50:17.254Z,9.711589
2024-03-01T03:51:17.168Z,9.711574
2024-03-01T03:52:17.187Z,9.711720
2024-03-01T03:53:17.159Z,9.711509
2024-03-01T03:54:17.159Z,9.711787
2024-03-01T03:55:17.162Z,9.711929
2024-03-01T03:56:17.123Z,9.712133
2024-03-01T03:57:17.128Z,9.712085
2024-03-01T03:58:17.143Z,9.712122
2024-03-01T03:59:17.143Z,9.712068
2024-03-01T04:00:17.280Z,9.712234
2024-03-01T04:01:18.488Z,9.711832
2024-03-01T04:02:17.163Z,9.711655
2024-03-01T04:03:17.080Z,9.711743
2024-03-01T04:04:17.101Z,9.711935
2024-03-01T04:05:17.040Z,9.712054
2024-03-01T04:06:17.213Z,9.711892
2024-03-01T04:07:17.101Z,9.711653
2024-03-01T04:08:17.028Z,9.711620
2024-03-01T04:09:17.030Z,9.711680
2024-03-01T04:10:17.104Z,9.711583
2024-03-01T04:11:17.073Z,9.711574
2024-03-01T04:12:17.004Z,9.711524
2024-03-01T04:13:17.045Z,9.711573
2024-03-01T04:14:16.983Z,9.711531
2024-03-01T04:15:16.969Z,9.711589
2024-03-01T04:16:17.018Z,9.711589
2024-03-01T04:17:16.959Z,9.711554
2024-03-01T04:18:16.998Z,9.711586
2024-03-01T04:19:17.064Z,9.711767
2024-03-01T04:20:16.920Z,9.711659
2024-03-01T04:21:16.974Z,9.711664
2024-03-01T04:22:17.033Z,9.711711
2024-03-01T04:23:16.904Z,9.711799
2024-03-01T04:24:16.912Z,9.711743
2024-03-01T04:25:16.928Z,9.711663
2024-03-01T04:26:16.892Z,9.711787
2024-03-01T04:27:16.860Z,9.711835
2024-03-01T04:28:16.977Z,9.711915
2024-03-01T04:29:16.875Z,9.711731
2024-03-01T04:30:16.876Z,9.711733
2024-03-01T04:31:16.882Z,9.711779
2024-03-01T04:32:16.831Z,9.711657
2024-03-01T04:33:16.930Z,9.711673
2024-03-01T04:34:16.873Z,9.711838
2024-03-01T04:35:16.821Z,9.711761
2024-03-01T04:36:16.828Z,9.711622
2024-03-01T04:37:16.875Z,9.711630
2024-03-01T04:38:16.929Z,9.711602
2024-03-01T04:39:16.782Z,9.711568
2024-03-01T04:40:18.837Z,9.711701
2024-03-01T04:41:16.768Z,9.712090
2024-03-01T04:42:16.753Z,9.712111
2024-03-01T04:43:16.817Z,9.712156
2024-03-01T04:44:16.744Z,9.712322
2024-03-01T04:45:16.752Z,9.712086
2024-03-01T04:46:16.785Z,9.712022
2024-03-01T04:47:16.730Z,9.711999
2024-03-01T04:48:16.740Z,9.711863
2024-03-01T04:49:16.749Z,9.711751
2024-03-01T04:50:16.725Z,9.711888
2024-03-01T04:51:16.740Z,9.711865
2024-03-01T04:52:16.755Z,9.711973
2024-03-01T04:53:16.678Z,9.711831
2024-03-01T04:54:16.717Z,9.712174
2024-03-01T04:55:16.750Z,9.711929
2024-03-01T04:56:16.680Z,9.711854
2024-03-01T04:57:16.647Z,9.711954
2024-03-01T04:58:16.685Z,9.711658
2024-03-01T04:59:16.906Z,9.711884
2024-03-01T05:00:16.635Z,9.712090
2024-03-01T05:01:16.680Z,9.711926
2024-03-01T05:02:16.622Z,9.711907
2024-03-01T05:03:16.605Z,9.711787
2024-03-01T05:04:16.608Z,9.711686
2024-03-01T05:05:16.661Z,9.711701
2024-03-01T05:06:16.570Z,9.711682
2024-03-01T05:07:16.601Z,9.711699
2024-03-01T05:08:16.563Z,9.711680
2024-03-01T05:09:16.594Z,9.711636
2024-03-01T05:10:16.620Z,9.711667
2024-03-01T05:11:16.643Z,9.711640
2024-03-01T05:12:16.555Z,9.711686
2024-03-01T05:13:16.548Z,9.711684
2024-03-01T05:14:16.528Z,9.711679
2024-03-01T05:15:16.547Z,9.711615
2024-03-01T05:16:16.522Z,9.711733
2024-03-01T05:17:16.490Z,9.711679
2024-03-01T05:18:16.473Z,9.711658
2024-03-01T05:19:16.526Z,9.711663
2024-03-01T05:20:16.458Z,9.711650
2024-03-01T05:21:16.464Z,9.711681
2024-03-01T05:22:16.456Z,9.711731
2024-03-01T05:23:16.454Z,9.711685
2024-03-01T05:24:16.452Z,9.711665
2024-03-01T05:25:16.480Z,9.711638
2024-03-01T05:26:16.419Z,9.711602
2024-03-01T05:27:16.421Z,9.711603
2024-03-01T05:28:16.459Z,9.711577
2024-03-01T05:29:16.388Z,9.711679
2024-03-01T05:30:21.198Z,9.711730
2024-03-01T05:31:23.311Z,9.711777
2024-03-01T05:32:18.426Z,9.711662
2024-03-01T05:33:19.310Z,9.711589
2024-03-01T05:34:16.416Z,9.711619
2024-03-01T05:35:16.377Z,9.711655
2024-03-01T05:36:16.330Z,9.711663
2024-03-01T05:37:17.254Z,9.711681
2024-03-01T05:38:16.354Z,9.711745
2024-03-01T05:39:16.320Z,9.711734
2024-03-01T05:40:16.313Z,9.711696
2024-03-01T05:41:17.201Z,9.711638
2024-03-01T05:42:16.427Z,9.711675
2024-03-01T05:43:16.307Z,9.711730
2024-03-01T05:44:16.276Z,9.711690
2024-03-01T05:45:16.265Z,9.711720
2024-03-01T05:46:16.648Z,9.711714
2024-03-01T05:47:16.251Z,9.711634
2024-03-01T05:48:16.266Z,9.711728
2024-03-01T05:49:16.259Z,9.711706
2024-03-01T05:50:16.230Z,9.711664
2024-03-01T05:51:16.225Z,9.711654
2024-03-01T05:52:16.303Z,9.711649
2024-03-01T05:53:17.517Z,9.711663
2024-03-01T05:54:16.187Z,9.711722
2024-03-01T05:55:16.215Z,9.711744
2024-03-01T05:56:16.181Z,9.711853
2024-03-01T05:57:16.213Z,9.711828
2024-03-01T05:58:16.439Z,9.711808
2024-03-01T05:59:16.176Z,9.711865
2024-03-01T06:00:16.161Z,9.711794
2024-03-01T06:01:16.212Z,9.711743
2024-03-01T06:02:16.188Z,9.711761
2024-03-01T06:03:16.138Z,9.711764
2024-03-01T06:04:16.168Z,9.711734
2024-03-01T06:05:16.113Z,9.711773
2024-03-01T06:06:16.153Z,9.711761
2024-03-01T06:07:16.153Z,9.711794
2024-03-01T06:08:16.121Z,9.711684
2024-03-01T06:09:16.085Z,9.711754
2024-03-01T06:10:16.155Z,9.711643
2024-03-01T06:11:16.155Z,9.711629
2024-03-01T06:12:16.078Z,9.711689
2024-03-01T06:13:16.079Z,9.711637
2024-03-01T06:14:16.062Z,9.711607
2024-03-01T06:15:16.058Z,9.711621
2024-03-01T06:16:16.074Z,9.711727
2024-03-01T06:17:16.030Z,9.711748
2024-03-01T06:18:16.079Z,9.711744
2024-03-01T06:19:16.085Z,9.711487
2024-03-01T06:20:16.023Z,9.711428
2024-03-01T06:21:16.009Z,9.711819
2024-03-01T06:22:16.035Z,9.712075
2024-03-01T06:23:15.993Z,9.711931
2024-03-01T06:24:16.002Z,9.711789
2024-03-01T06:25:16.031Z,9.712206
2024-03-01T06:26:15.961Z,9.712172
2024-03-01T06:27:15.933Z,9.711814
2024-03-01T06:28:15.981Z,9.711801
2024-03-01T06:29:15.935Z,9.711761
2024-03-01T06:30:15.917Z,9.711804
2024-03-01T06:31:15.967Z,9.711805
2024-03-01T06:32:15.900Z,9.711864
2024-03-01T06:33:15.927Z,9.711818
2024-03-01T06:34:15.908Z,9.712113
2024-03-01T06:35:15.861Z,9.711802
2024-03-01T06:36:16.789Z,9.711605
2024-03-01T06:37:15.902Z,9.711790
2024-03-01T06:38:15.901Z,9.711727
2024-03-01T06:39:15.953Z,9.711668
2024-03-01T06:40:15.880Z,9.711725
2024-03-01T06:41:15.940Z,9.711687
2024-03-01T06:42:16.811Z,9.711725
2024-03-01T06:43:15.844Z,9.711825
2024-03-01T06:44:15.815Z,9.711641
2024-03-01T06:45:15.833Z,9.711577
2024-03-01T06:46:15.954Z,9.711718
2024-03-01T06:47:20.275Z,9.711967
2024-03-01T06:48:19.353Z,9.711968
2024-03-01T06:49:17.539Z,9.711913
2024-03-01T06:50:16.783Z,9.711850
2024-03-01T06:51:16.762Z,9.712253
2024-03-01T06:52:15.783Z,9.712338
2024-03-01T06:53:15.727Z,9.711884
2024-03-01T06:54:15.793Z,9.711798
2024-03-01T06:55:15.822Z,9.711776
2024-03-01T06:56:15.760Z,9.711702
2024-03-01T06:57:15.697Z,9.711807
2024-03-01T06:58:15.761Z,9.711747
2024-03-01T06:59:15.682Z,9.711743
2024-03-01T07:00:17.225Z,9.711737
2024-03-01T07:01:15.775Z,9.711658
2024-03-01T07:02:15.823Z,9.711615
2024-03-01T07:03:15.685Z,9.711575
2024-03-01T07:04:15.673Z,9.711568
2024-03-01T07:05:15.692Z,9.711603
2024-03-01T07:06:15.713Z,9.711605
2024-03-01T07:07:15.624Z,9.711636
2024-03-01T07:08:15.604Z,9.711523
2024-03-01T07:09:15.623Z,9.711633
2024-03-01T07:10:15.688Z,9.711904
2024-03-01T07:11:15.601Z,9.711806
2024-03-01T07:12:15.567Z,9.711783
2024-03-01T07:13:15.588Z,9.711785
2024-03-01T07:14:16.297Z,9.711715
2024-03-01T07:15:15.585Z,9.711596
2024-03-01T07:16:15.582Z,9.711535
2024-03-01T07:17:15.549Z,9.711720
2024-03-01T07:18:15.670Z,9.711673
2024-03-01T07:19:15.604Z,9.711762
2024-03-01T07:20:15.602Z,9.711671
2024-03-01T07:21:15.560Z,9.711674
2024-03-01T07:22:15.558Z,9.711788
2024-03-01T07:23:15.500Z,9.711707
2024-03-01T07:24:16.219Z,9.711718
2024-03-01T07:25:15.524Z,9.711745
2024-03-01T07:26:15.469Z,9.711769
2024-03-01T07:27:15.822Z,9.711685
2024-03-01T07:28:15.524Z,9.711823
2024-03-01T07:29:15.443Z,9.711700
2024-03-01T07:30:15.431Z,9.711436
2024-03-01T07:31:16.351Z,9.711544
2024-03-01T07:32:15.461Z,9.711711
2024-03-01T07:33:15.390Z,9.711700
2024-03-01T07:34:15.469Z,9.711766
2024-03-01T07:35:16.299Z,9.711602
2024-03-01T07:36:15.400Z,9.711707
2024-03-01T07:37:15.398Z,9.711695
2024-03-01T07:38:15.383Z,9.711881
2024-03-01T07:39:15.364Z,9.711748
2024-03-01T07:40:15.421Z,9.711793
2024-03-01T07:41:15.347Z,9.711610
2024-03-01T07:42:15.357Z,9.711544
2024-03-01T07:43:15.352Z,9.711577
2024-03-01T07:44:15.311Z,9.711622
2024-03-01T07:45:16.231Z,9.711695
2024-03-01T07:46:15.451Z,9.711585
2024-03-01T07:47:15.306Z,9.711619
2024-03-01T07:48:15.351Z,9.711681
2024-03-01T07:49:15.282Z,9.711687
2024-03-01T07:50:15.275Z,9.711344
2024-03-01T07:51:15.283Z,9.711572
2024-03-01T07:52:15.299Z,9.711575
2024-03-01T07:53:15.275Z,9.711669
2024-03-01T07:54:15.265Z,9.711687
2024-03-01T07:55:15.267Z,9.711651
2024-03-01T07:56:15.229Z,9.711707
2024-03-01T07:57:15.213Z,9.711711
2024-03-01T07:58:15.741Z,9.711667
2024-03-01T07:59:15.225Z,9.711637
2024-03-01T08:00:15.900Z,9.711688
2024-03-01T08:01:15.905Z,9.711671
2024-03-01T08:02:15.171Z,9.711682
2024-03-01T08:03:15.184Z,9.711697
2024-03-01T08:04:15.201Z,9.711677
2024-03-01T08:05:15.153Z,9.711662
2024-03-01T08:06:15.236Z,9.711636
2024-03-01T08:07:15.204Z,9.711649
2024-03-01T08:08:15.130Z,9.711670
2024-03-01T08:09:15.111Z,9.711673
2024-03-01T08:10:15.148Z,9.711669
2024-03-01T08:11:15.145Z,9.711679
2024-03-01T08:12:15.180Z,9.711673
2024-03-01T08:13:15.110Z,9.711682
2024-03-01T08:14:15.067Z,9.711660
2024-03-01T08:15:15.071Z,9.711682
2024-03-01T08:16:15.172Z,9.711683
2024-03-01T08:17:15.089Z,9.711694
2024-03-01T08:18:15.104Z,9.711675
2024-03-01T08:19:15.079Z,9.711689
2024-03-01T08:20:15.042Z,9.711686
2024-03-01T08:21:15.018Z,9.711637
2024-03-01T08:22:15.183Z,9.711600
2024-03-01T08:23:15.012Z,9.711351
2024-03-01T08:24:15.016Z,9.711485
2024-03-01T08:25:15.001Z,9.711720
2024-03-01T08:26:14.985Z,9.711844
2024-03-01T08:27:14.965Z,9.711755
2024-03-01T08:28:14.983Z,9.711680
2024-03-01T08:29:14.958Z,9.711757
2024-03-01T08:30:14.968Z,9.711722
2024-03-01T08:31:14.985Z,9.711566
2024-03-01T08:32:14.952Z,9.711503
2024-03-01T08:33:14.976Z,9.711738
2024-03-01T08:34:14.956Z,9.711736
2024-03-01T08:35:14.997Z,9.711541
2024-03-01T08:36:14.911Z,9.711661
2024-03-01T08:37:15.894Z,9.711658
2024-03-01T08:38:15.015Z,9.711797
2024-03-01T08:39:14.896Z,9.711751
2024-03-01T08:40:14.908Z,9.711678
2024-03-01T08:41:14.865Z,9.711726
2024-03-01T08:42:16.462Z,9.711680
2024-03-01T08:43:14.904Z,9.711623
2024-03-01T08:44:15.924Z,9.711921
2024-03-01T08:45:14.833Z,9.711799
2024-03-01T08:46:14.875Z,9.711743
2024-03-01T08:47:14.838Z,9.711649
2024-03-01T08:48:17.365Z,9.711611
2024-03-01T08:49:18.413Z,9.711572
2024-03-01T08:50:14.785Z,9.711696
2024-03-01T08:51:14.767Z,9.711638
2024-03-01T08:52:14.800Z,9.711797
2024-03-01T08:53:14.774Z,9.711530
2024-03-01T08:54:14.762Z,9.711532
2024-03-01T08:55:14.778Z,9.711514
2024-03-01T08:56:14.763Z,9.711450
2024-03-01T08:57:14.730Z,9.711659
2024-03-01T08:58:15.365Z,9.711782
2024-03-01T08:59:15.709Z,9.711609
2024-03-01T09:00:14.724Z,9.711715
2024-03-01T09:01:14.760Z,9.711791
2024-03-01T09:02:16.309Z,9.711763
2024-03-01T09:03:14.664Z,9.711701
2024-03-01T09:04:15.261Z,9.711724
2024-03-01T09:05:14.677Z,9.711615
2024-03-01T09:06:15.646Z,9.711686
2024-03-01T09:07:14.736Z,9.711984
2024-03-01T09:08:14.639Z,9.711679
2024-03-01T09:09:14.621Z,9.711502
2024-03-01T09:10:14.624Z,9.711824
2024-03-01T09:11:14.655Z,9.712068
2024-03-01T09:12:14.599Z,9.711625
2024-03-01T09:13:14.659Z,9.711820
2024-03-01T09:14:15.353Z,9.711858
2024-03-01T09:15:14.590Z,9.711884
2024-03-01T09:16:15.393Z,9.711873
2024-03-01T09:17:14.541Z,9.711844
2024-03-01T09:18:14.631Z,9.711656
2024-03-01T09:19:14.569Z,9.711986
2024-03-01T09:20:14.538Z,9.712100
2024-03-01T09:21:14.525Z,9.711341
2024-03-01T09:22:14.545Z,9.711127
2024-03-01T09:23:14.527Z,9.710961
2024-03-01T09:24:14.504Z,9.710430
2024-03-01T09:25:14.532Z,9.710629
2024-03-01T09:26:14.596Z,9.711400
2024-03-01T09:27:14.482Z,9.711506
2024-03-01T09:28:14.474Z,9.711535
2024-03-01T09:29:15.316Z,9.711493
2024-03-01T09:30:14.461Z,9.711508
2024-03-01T09:31:14.467Z,9.711515
2024-03-01T09:32:14.438Z,9.711596
2024-03-01T09:33:16.342Z,9.711650
2024-03-01T09:34:14.486Z,9.711884
2024-03-01T09:35:14.435Z,9.711870
2024-03-01T09:36:14.443Z,9.711821
2024-03-01T09:37:14.452Z,9.711738
2024-03-01T09:38:14.406Z,9.711663
2024-03-01T09:39:14.382Z,9.711973
2024-03-01T09:40:14.429Z,9.712294
2024-03-01T09:41:15.023Z,9.712430
2024-03-01T09:42:15.377Z,9.712388
2024-03-01T09:43:15.270Z,9.712047
2024-03-01T09:44:14.344Z,9.711978
2024-03-01T09:45:14.391Z,9.711899
2024-03-01T09:46:14.387Z,9.711862
2024-03-01T09:47:14.334Z,9.711796
2024-03-01T09:48:14.433Z,9.711686
2024-03-01T09:49:14.356Z,9.711700
2024-03-01T09:50:14.327Z,9.711698
2024-03-01T09:51:14.288Z,9.711727
2024-03-01T09:52:14.305Z,9.711732
2024-03-01T09:53:14.849Z,9.711695
2024-03-01T09:54:14.898Z,9.711697
2024-03-01T09:55:15.315Z,9.711652
2024-03-01T09:56:14.302Z,9.711647
2024-03-01T09:57:14.278Z,9.711719
2024-03-01T09:58:14.280Z,9.711654
2024-03-01T09:59:14.224Z,9.711520
2024-03-01T10:00:14.219Z,9.711798
2024-03-01T10:01:15.303Z,9.711814
2024-03-01T10:02:14.285Z,9.711657
2024-03-01T10:03:14.185Z,9.711597
2024-03-01T22:41:28.266Z,9.710656
2024-03-01T22:42:29.205Z,9.709810
2024-03-01T22:43:28.180Z,9.710103
2024-03-01T22:44:28.186Z,9.710688
2024-03-01T22:45:28.186Z,9.710941
2024-03-01T22:46:28.208Z,9.710778
2024-03-01T22:47:28.168Z,9.710602
2024-03-01T22:48:28.166Z,9.710911
2024-03-01T22:49:28.144Z,9.711091
2024-03-01T22:50:28.147Z,9.711115
2024-03-01T22:51:28.144Z,9.711199
2024-03-01T22:52:28.133Z,9.711221
2024-03-01T22:53:28.137Z,9.711269
2024-03-01T22:54:28.151Z,9.711277
2024-03-01T22:55:29.694Z,9.711263
2024-03-01T22:56:28.095Z,9.711229
2024-03-01T22:57:28.083Z,9.711317
2024-03-01T22:58:28.062Z,9.711090
2024-03-01T22:59:28.594Z,9.711102
2024-03-01T23:00:28.049Z,9.711112
2024-03-01T23:01:28.132Z,9.711103
2024-03-01T23:02:28.023Z,9.711160
2024-03-01T23:03:28.024Z,9.711101
2024-03-01T23:04:28.010Z,9.711095
2024-03-01T23:05:28.016Z,9.711112
2024-03-01T23:06:28.633Z,9.711195
2024-03-01T23:07:28.006Z,9.711061
2024-03-01T23:08:27.983Z,9.711082
2024-03-01T23:09:28.020Z,9.710785
2024-03-01T23:10:27.972Z,9.710671
2024-03-01T23:11:27.977Z,9.710671
2024-03-01T23:12:29.597Z,9.710671
2024-03-01T23:13:27.942Z,9.710671
2024-03-01T23:14:27.938Z,9.710671
2024-03-01T23:15:27.965Z,9.710671
2024-03-01T23:16:27.929Z,9.710671
2024-03-01T23:17:28.667Z,9.711455
2024-03-01T23:18:27.918Z,9.711475
2024-03-01T23:19:27.896Z,9.711205
2024-03-01T23:20:27.877Z,9.711466
2024-03-01T23:21:27.950Z,9.711832
2024-03-01T23:22:27.942Z,9.711587
2024-03-01T23:23:27.865Z,9.711555
2024-03-01T23:24:27.874Z,9.711511
2024-03-01T23:25:28.594Z,9.711269
2024-03-01T23:26:27.840Z,9.711130
2024-03-01T23:27:27.869Z,9.711659
2024-03-01T23:28:27.813Z,9.711596
2024-03-01T23:29:27.813Z,9.711591
2024-03-01T23:30:27.840Z,9.711803
2024-03-01T23:31:27.818Z,9.711664
2024-03-01T23:32:29.647Z,9.711506
2024-03-01T23:33:27.871Z,9.711547
2024-03-01T23:34:27.834Z,9.711598
2024-03-01T23:35:27.784Z,9.711674
2024-03-01T23:36:27.761Z,9.711756
2024-03-01T23:37:27.781Z,9.711564
2024-03-01T23:38:27.755Z,9.711621
2024-03-01T23:39:27.742Z,9.711516
2024-03-01T23:40:27.730Z,9.711596
2024-03-01T23:41:27.706Z,9.711401
2024-03-01T23:42:27.802Z,9.711296
2024-03-01T23:43:27.702Z,9.711538
2024-03-01T23:44:27.694Z,9.711539
2024-03-01T23:45:27.739Z,9.711573
2024-03-01T23:46:27.672Z,9.711657
2024-03-01T23:47:27.719Z,9.711699
2024-03-01T23:48:27.692Z,9.711551
2024-03-01T23:49:27.639Z,9.711517
2024-03-01T23:50:27.650Z,9.711588
2024-03-01T23:51:27.706Z,9.711626
2024-03-01T23:52:27.629Z,9.711637
2024-03-01T23:53:27.606Z,9.711789
2024-03-01T23:54:27.726Z,9.711735
2024-03-01T23:55:27.600Z,9.711820
2024-03-01T23:56:27.613Z,9.712054
2024-03-01T23:57:27.683Z,9.711861
2024-03-01T23:58:27.570Z,9.711781
2024-03-01T23:59:27.563Z,9.711517
